Mindenmines, Missouri
Current Conditions -  °F | °C
As of 4:55 PM on Friday 28 Nov 2014 (Local Time) from KPTS Reporting Station
Clear Clear  
Wind Chill: 59°   Ceiling: Unl
Heat Index: 59°   Visibility: 10mi
Dew Point: 40°   Wind: 15mph
Humidity: 49%   Direction: 220°SW
Pressure: 29.85"   Gusts: 21mph
Location:  37.47°N, 94.59°W
Report Text: KPTS 282255Z AUTO 22013G18KT 10SM CLR 15/05 A2985 RMK AO2 T01510045
Loading
Personal Weather Stations






























Interactive Weather Map New forecast layout! Learn more

10-Day Weather Forecast

Advertisements
Track Severe Weather on mobile